Terminal Aerodrome Forecast
Issued by NWS Grand Forks, ND

Home | Current Version | Previous Version | Graphics & Text | Print | Product List | Glossary On
Versions: 1 2 3 4 5 6 7 8 9 10 11 12 13 14 15
389
FTUS43 KFGF 211120
TAFGFK
TAF
KGFK 211120Z 2112/2212 14006KT P6SM SKC
     FM211600 16012G20KT P6SM FEW250
     FM220100 17011KT P6SM SKC
     FM221000 16010KT P6SM FEW250 WS015/19030KT=

USA.gov is the U.S. government's official web portal to all federal, state and local government web resources and services.